createdAt,value
2023-03-29T00:02:49.049Z,6.40
2023-03-29T00:05:41.348Z,7.10
2023-03-29T00:08:29.867Z,6.40
2023-03-29T00:11:17.504Z,5.80
2023-03-29T00:14:04.993Z,6.40
2023-03-29T00:16:54.282Z,6.40
2023-03-29T00:19:44.289Z,6.40
2023-03-29T00:22:32.879Z,6.60
2023-03-29T00:25:20.312Z,6.60
2023-03-29T00:28:10.595Z,7.20
2023-03-29T00:31:05.770Z,6.60
2023-03-29T00:33:54.693Z,6.40
2023-03-29T00:36:43.447Z,6.60
2023-03-29T00:39:32.160Z,6.50
2023-03-29T00:42:20.278Z,7.60
2023-03-29T00:45:18.190Z,6.70
2023-03-29T00:48:07.282Z,6.60
2023-03-29T00:50:59.032Z,6.50
2023-03-29T00:53:50.020Z,6.60
2023-03-29T00:56:38.840Z,6.50
2023-03-29T00:59:29.944Z,6.50
2023-03-29T01:02:18.282Z,6.70
2023-03-29T01:05:07.177Z,6.50
2023-03-29T01:08:00.694Z,6.50
2023-03-29T01:10:53.406Z,6.50
2023-03-29T01:13:42.877Z,6.50
2023-03-29T01:16:31.583Z,7.80
2023-03-29T01:19:21.527Z,6.60
2023-03-29T01:22:14.887Z,6.80
2023-03-29T01:25:10.881Z,6.50
2023-03-29T01:28:03.762Z,8.60
2023-03-29T01:30:53.421Z,7.00
2023-03-29T01:33:43.948Z,7.00
2023-03-29T01:36:35.122Z,7.00
2023-03-29T01:39:22.668Z,7.10
2023-03-29T01:42:14.403Z,7.10
2023-03-29T01:45:08.778Z,9.80
2023-03-29T01:48:00.712Z,9.50
2023-03-29T01:50:50.344Z,7.00
2023-03-29T01:53:40.677Z,6.90
2023-03-29T01:56:29.444Z,6.90
2023-03-29T01:59:22.135Z,7.00
2023-03-29T02:02:14.786Z,7.00
2023-03-29T02:05:04.003Z,6.90
2023-03-29T02:07:51.827Z,7.00
2023-03-29T02:10:39.869Z,7.10
2023-03-29T02:13:27.516Z,6.70
2023-03-29T02:16:16.038Z,8.50
2023-03-29T02:19:05.424Z,7.20
2023-03-29T02:21:58.120Z,7.30
2023-03-29T02:24:46.722Z,7.30
2023-03-29T02:27:34.319Z,7.30
2023-03-29T02:30:22.177Z,7.40
2023-03-29T02:33:15.765Z,7.30
2023-03-29T02:36:10.587Z,8.60
2023-03-29T02:38:59.866Z,7.60
2023-03-29T02:41:48.783Z,7.50
2023-03-29T02:44:38.030Z,7.50
2023-03-29T02:47:28.169Z,7.60
2023-03-29T02:50:16.044Z,7.60
2023-03-29T02:53:08.866Z,7.70
2023-03-29T02:55:59.243Z,7.60
2023-03-29T02:58:47.684Z,7.60
2023-03-29T03:01:36.908Z,7.80
2023-03-29T03:04:25.720Z,7.80
2023-03-29T03:07:14.236Z,7.90
2023-03-29T03:10:04.106Z,8.00
2023-03-29T03:12:51.951Z,8.00
2023-03-29T03:15:43.011Z,8.00
2023-03-29T03:18:30.793Z,8.00
2023-03-29T03:21:18.895Z,8.00
2023-03-29T03:24:07.771Z,7.50
2023-03-29T03:27:00.181Z,8.10
2023-03-29T03:29:48.788Z,9.50
2023-03-29T03:32:36.758Z,8.00
2023-03-29T03:35:46.694Z,8.00
2023-03-29T03:38:36.373Z,8.00
2023-03-29T03:41:26.260Z,8.00
2023-03-29T03:44:15.871Z,7.90
2023-03-29T03:47:04.305Z,8.10
2023-03-29T03:49:52.751Z,8.10
2023-03-29T03:52:44.292Z,8.10
2023-03-29T03:55:32.599Z,8.10
2023-03-29T03:58:29.867Z,8.10
2023-03-29T04:01:19.856Z,8.20
2023-03-29T04:04:21.475Z,9.40
2023-03-29T04:07:28.925Z,7.90
2023-03-29T04:10:56.037Z,7.90
2023-03-29T04:13:52.298Z,7.70
2023-03-29T04:16:52.921Z,9.40
2023-03-29T04:20:01.529Z,7.50
2023-03-29T04:22:52.664Z,4.80
2023-03-29T04:25:41.796Z,7.40
2023-03-29T04:28:32.374Z,7.40
2023-03-29T04:31:42.657Z,7.10
2023-03-29T04:35:10.758Z,9.00
2023-03-29T04:37:59.143Z,7.10
2023-03-29T04:40:47.308Z,7.30
2023-03-29T04:43:47.865Z,7.50
2023-03-29T04:46:44.782Z,7.20
2023-03-29T04:49:49.388Z,7.20
2023-03-29T04:52:53.479Z,7.20
2023-03-29T04:55:41.829Z,7.30
2023-03-29T04:58:32.922Z,7.40
2023-03-29T05:01:21.398Z,7.70
2023-03-29T05:04:16.718Z,7.30
2023-03-29T05:07:18.133Z,7.30
2023-03-29T05:10:08.679Z,7.20
2023-03-29T05:12:57.128Z,7.20
2023-03-29T05:15:45.063Z,7.20
2023-03-29T05:18:32.752Z,8.10
2023-03-29T05:21:23.056Z,7.40
2023-03-29T05:24:12.412Z,9.50
2023-03-29T05:27:23.084Z,7.50
2023-03-29T05:30:25.803Z,9.70
2023-03-29T05:33:22.022Z,7.60
2023-03-29T05:36:11.181Z,7.70
2023-03-29T05:39:05.063Z,7.70
2023-03-29T05:41:53.314Z,9.50
2023-03-29T05:44:54.657Z,7.80
2023-03-29T05:47:42.125Z,8.10
2023-03-29T05:50:30.431Z,8.10
2023-03-29T05:53:18.672Z,9.30
2023-03-29T05:56:08.815Z,8.40
2023-03-29T05:58:58.749Z,8.20
2023-03-29T06:01:48.174Z,8.20
2023-03-29T06:04:40.047Z,8.30
2023-03-29T06:07:51.866Z,8.20
2023-03-29T06:11:04.509Z,8.20
2023-03-29T06:14:11.339Z,8.30
2023-03-29T06:17:05.361Z,8.30
2023-03-29T06:19:55.781Z,10.80
2023-03-29T06:22:46.934Z,8.40
2023-03-29T06:25:35.629Z,6.20
2023-03-29T06:28:24.357Z,8.50
2023-03-29T06:31:13.360Z,8.60
2023-03-29T06:34:05.831Z,8.60
2023-03-29T06:37:13.002Z,8.60
2023-03-29T06:40:01.138Z,8.60
2023-03-29T06:42:59.192Z,8.80
2023-03-29T06:46:10.783Z,8.70
2023-03-29T06:49:30.131Z,8.80
2023-03-29T06:52:29.753Z,8.90
2023-03-29T06:55:18.681Z,9.10
2023-03-29T06:58:09.616Z,9.70
2023-03-29T07:01:02.181Z,9.10
2023-03-29T07:04:11.926Z,9.50
2023-03-29T07:07:22.279Z,9.70
2023-03-29T07:10:37.048Z,10.00
2023-03-29T07:13:33.640Z,10.20
2023-03-29T07:16:24.366Z,10.10
2023-03-29T07:19:30.420Z,10.30
2023-03-29T07:22:43.740Z,10.20
2023-03-29T07:25:31.429Z,10.80
2023-03-29T07:28:20.346Z,10.70
2023-03-29T07:31:11.212Z,12.00
2023-03-29T07:34:06.345Z,10.40
2023-03-29T07:36:54.745Z,10.40
2023-03-29T07:39:44.020Z,10.30
2023-03-29T07:43:01.146Z,10.40
2023-03-29T07:45:55.521Z,11.20
2023-03-29T07:48:43.022Z,10.70
2023-03-29T07:51:37.000Z,10.80
2023-03-29T07:54:32.930Z,11.20
2023-03-29T07:57:37.838Z,10.90
2023-03-29T08:00:25.641Z,10.90
2023-03-29T08:03:32.406Z,12.20
2023-03-29T08:06:20.267Z,10.70
2023-03-29T08:09:08.978Z,10.70
2023-03-29T08:11:57.713Z,10.80
2023-03-29T08:14:52.678Z,11.40
2023-03-29T08:17:48.048Z,12.20
2023-03-29T08:20:35.345Z,10.90
2023-03-29T08:23:24.772Z,10.90
2023-03-29T08:26:26.950Z,10.90
2023-03-29T08:29:16.660Z,11.00
2023-03-29T08:32:07.681Z,11.10
2023-03-29T08:34:55.759Z,10.90
2023-03-29T08:37:48.485Z,10.80
2023-03-29T08:40:37.047Z,11.00
2023-03-29T08:43:50.073Z,10.80
2023-03-29T08:46:50.680Z,11.20
2023-03-29T08:49:50.470Z,11.50
2023-03-29T08:52:42.596Z,11.10
2023-03-29T08:55:44.087Z,11.20
2023-03-29T08:58:52.011Z,11.30
2023-03-29T09:01:40.159Z,11.50
2023-03-29T09:04:31.458Z,11.50
2023-03-29T09:07:30.350Z,11.80
2023-03-29T09:10:20.325Z,12.00
2023-03-29T09:13:13.998Z,12.00
2023-03-29T09:16:06.353Z,12.00
2023-03-29T09:19:05.141Z,12.70
2023-03-29T09:21:59.435Z,12.50
2023-03-29T09:24:58.432Z,12.60
2023-03-29T09:27:51.812Z,12.70
2023-03-29T09:30:59.494Z,12.80
2023-03-29T09:33:49.872Z,13.30
2023-03-29T09:36:44.301Z,15.50
2023-03-29T09:39:31.808Z,13.30
2023-03-29T09:42:31.251Z,13.50
2023-03-29T09:45:19.140Z,13.40
2023-03-29T09:48:15.218Z,14.60
2023-03-29T09:51:09.140Z,13.20
2023-03-29T09:54:00.363Z,13.10
2023-03-29T09:57:18.312Z,13.20
2023-03-29T10:00:10.830Z,13.20
2023-03-29T10:03:05.012Z,14.20
2023-03-29T10:06:13.867Z,13.50
2023-03-29T10:09:17.577Z,13.90
2023-03-29T10:12:08.294Z,14.20
2023-03-29T10:14:56.060Z,14.30
2023-03-29T10:17:46.446Z,14.10
2023-03-29T10:20:36.566Z,14.30
2023-03-29T10:23:31.611Z,14.80
2023-03-29T10:26:24.189Z,15.00
2023-03-29T10:29:13.411Z,15.30
2023-03-29T10:32:01.760Z,15.20
2023-03-29T10:34:52.209Z,17.50
2023-03-29T10:37:41.747Z,15.20
2023-03-29T10:40:30.882Z,15.60
2023-03-29T10:43:23.248Z,16.40
2023-03-29T10:46:13.612Z,15.80
2023-03-29T10:49:03.310Z,16.10
2023-03-29T10:51:53.716Z,15.50
2023-03-29T10:54:42.145Z,15.30
2023-03-29T10:57:34.113Z,15.50
2023-03-29T11:00:24.965Z,15.60
2023-03-29T11:03:28.772Z,15.60
2023-03-29T11:06:22.207Z,15.50
2023-03-29T11:09:18.301Z,15.30
2023-03-29T11:12:16.391Z,15.60
2023-03-29T11:15:12.951Z,16.30
2023-03-29T11:18:06.094Z,15.80
2023-03-29T11:21:00.589Z,15.60
2023-03-29T11:23:51.796Z,15.70
2023-03-29T11:26:43.897Z,15.90
2023-03-29T11:29:33.574Z,16.40
2023-03-29T11:32:26.822Z,16.40
2023-03-29T11:35:24.980Z,16.00
2023-03-29T11:38:18.286Z,16.00
2023-03-29T11:41:11.518Z,16.10
2023-03-29T11:44:03.793Z,16.30
2023-03-29T11:46:54.977Z,16.60
2023-03-29T11:49:46.974Z,16.30
2023-03-29T11:52:38.178Z,16.10
2023-03-29T11:55:28.374Z,17.80
2023-03-29T11:58:22.484Z,16.40
2023-03-29T12:01:15.176Z,16.30
2023-03-29T12:04:07.045Z,16.00
2023-03-29T12:06:58.980Z,16.00
2023-03-29T12:09:50.161Z,16.00
2023-03-29T12:12:43.309Z,16.20
2023-03-29T12:15:37.140Z,16.40
2023-03-29T12:18:33.260Z,16.60
2023-03-29T12:21:22.984Z,16.90
2023-03-29T12:24:12.962Z,17.30
2023-03-29T12:27:20.934Z,15.10
2023-03-29T12:30:40.485Z,17.10
2023-03-29T12:33:40.738Z,16.80
2023-03-29T12:36:57.442Z,16.90
2023-03-29T12:40:12.593Z,17.20
2023-03-29T12:43:24.017Z,17.30
2023-03-29T12:46:34.299Z,17.60
2023-03-29T12:49:27.141Z,17.40
2023-03-29T12:52:27.241Z,19.20
2023-03-29T12:55:23.941Z,17.20
2023-03-29T12:58:22.828Z,18.60
2023-03-29T13:01:12.115Z,18.10
2023-03-29T13:04:17.096Z,17.70
2023-03-29T13:07:06.154Z,18.00
2023-03-29T13:09:56.644Z,17.30
2023-03-29T13:12:46.204Z,17.50
2023-03-29T13:15:37.097Z,17.80
2023-03-29T13:18:32.437Z,18.10
2023-03-29T13:21:25.310Z,18.10
2023-03-29T13:24:23.003Z,18.10
2023-03-29T13:27:19.275Z,18.20
2023-03-29T13:30:15.716Z,16.90
2023-03-29T13:33:15.705Z,17.60
2023-03-29T13:36:06.902Z,17.90
2023-03-29T13:38:56.314Z,17.30
2023-03-29T13:41:48.843Z,17.10
2023-03-29T13:44:46.383Z,16.90
2023-03-29T13:47:43.194Z,16.90
2023-03-29T13:50:39.301Z,18.00
2023-03-29T13:53:30.396Z,17.20
2023-03-29T13:56:20.082Z,17.00
2023-03-29T13:59:12.120Z,19.30
2023-03-29T14:02:03.123Z,17.70
2023-03-29T14:04:52.297Z,17.80
2023-03-29T14:07:40.934Z,18.30
2023-03-29T14:10:34.841Z,18.30
2023-03-29T14:13:24.016Z,18.60
2023-03-29T14:16:13.084Z,18.80
2023-03-29T14:19:04.294Z,18.80
2023-03-29T14:21:53.646Z,18.70
2023-03-29T14:24:42.009Z,19.10
2023-03-29T14:27:31.955Z,19.30
2023-03-29T14:30:22.163Z,19.00
2023-03-29T14:33:13.055Z,19.20
2023-03-29T14:36:04.067Z,21.20
2023-03-29T14:38:53.659Z,20.10
2023-03-29T14:41:42.333Z,19.00
2023-03-29T14:44:32.005Z,19.10
2023-03-29T14:47:23.017Z,20.50
2023-03-29T14:50:17.469Z,18.90
2023-03-29T14:53:07.948Z,19.30
2023-03-29T14:55:58.355Z,19.00
2023-03-29T14:58:46.929Z,19.00
2023-03-29T15:01:34.533Z,18.70
2023-03-29T15:04:26.710Z,18.40
2023-03-29T15:07:15.080Z,18.40
2023-03-29T15:10:06.535Z,18.30
2023-03-29T15:12:55.221Z,18.20
2023-03-29T15:15:43.817Z,18.10
2023-03-29T15:18:35.103Z,18.00
2023-03-29T15:21:23.602Z,17.90
2023-03-29T15:24:20.275Z,18.70
2023-03-29T15:27:15.639Z,17.90
2023-03-29T15:30:04.221Z,18.00
2023-03-29T15:32:54.430Z,18.00
2023-03-29T15:35:42.203Z,20.40
2023-03-29T15:38:42.636Z,17.90
2023-03-29T15:41:35.573Z,17.90
2023-03-29T15:44:29.385Z,18.00
2023-03-29T15:47:17.166Z,18.10
2023-03-29T15:50:07.594Z,18.20
2023-03-29T15:53:05.417Z,18.40
2023-03-29T15:56:02.505Z,18.00
2023-03-29T15:58:50.615Z,18.00
2023-03-29T16:01:41.925Z,18.10
2023-03-29T16:04:29.932Z,18.20
2023-03-29T16:07:18.661Z,18.30
2023-03-29T16:10:09.403Z,17.80
2023-03-29T16:13:02.625Z,15.90
2023-03-29T16:15:51.248Z,17.80
2023-03-29T16:18:40.681Z,17.80
2023-03-29T16:21:29.305Z,19.70
2023-03-29T16:24:19.706Z,16.40
2023-03-29T16:27:08.321Z,17.40
2023-03-29T16:29:56.252Z,17.30
2023-03-29T16:32:46.397Z,17.10
2023-03-29T16:35:36.730Z,17.10
2023-03-29T16:38:25.993Z,17.00
2023-03-29T16:41:18.388Z,16.90
2023-03-29T16:44:06.041Z,19.20
2023-03-29T16:46:57.776Z,16.70
2023-03-29T16:49:49.339Z,19.00
2023-03-29T16:52:39.505Z,16.70
2023-03-29T16:55:29.990Z,16.50
2023-03-29T16:58:20.885Z,16.40
2023-03-29T17:01:16.290Z,16.20
2023-03-29T17:04:04.489Z,16.30
2023-03-29T17:06:52.116Z,16.10
2023-03-29T17:09:42.309Z,16.10
2023-03-29T17:12:30.919Z,16.70
2023-03-29T17:15:19.186Z,18.20
2023-03-29T17:18:08.146Z,15.60
2023-03-29T17:20:57.888Z,15.50
2023-03-29T17:23:46.502Z,16.40
2023-03-29T17:26:36.162Z,15.20
2023-03-29T17:29:23.853Z,15.70
2023-03-29T17:32:12.463Z,16.30
2023-03-29T17:35:02.465Z,16.70
2023-03-29T17:37:50.944Z,14.70
2023-03-29T17:40:38.933Z,14.60
2023-03-29T17:43:31.094Z,14.50
2023-03-29T17:46:23.027Z,14.50
2023-03-29T17:49:10.986Z,14.50
2023-03-29T17:51:59.717Z,14.20
2023-03-29T17:54:47.464Z,15.60
2023-03-29T17:57:35.726Z,15.80
2023-03-29T18:00:32.773Z,13.90
2023-03-29T18:03:20.972Z,15.20
2023-03-29T18:06:09.670Z,13.80
2023-03-29T18:08:58.984Z,13.90
2023-03-29T18:11:46.770Z,13.60
2023-03-29T18:14:34.529Z,11.90
2023-03-29T18:17:23.549Z,13.50
2023-03-29T18:20:13.197Z,13.50
2023-03-29T18:23:03.912Z,15.60
2023-03-29T18:25:51.839Z,14.80
2023-03-29T18:28:43.281Z,13.20
2023-03-29T18:31:31.248Z,13.60
2023-03-29T18:34:21.995Z,13.00
2023-03-29T18:37:14.827Z,12.90
2023-03-29T18:40:04.524Z,13.90
2023-03-29T18:42:53.360Z,12.80
2023-03-29T18:45:42.580Z,14.30
2023-03-29T18:48:31.265Z,12.70
2023-03-29T18:51:20.780Z,13.20
2023-03-29T18:54:14.142Z,12.60
2023-03-29T18:57:03.538Z,12.60
2023-03-29T18:59:51.460Z,12.60
2023-03-29T19:02:41.639Z,12.80
2023-03-29T19:05:29.602Z,12.70
2023-03-29T19:08:28.416Z,12.70
2023-03-29T19:11:16.665Z,12.70
2023-03-29T19:14:04.863Z,12.60
2023-03-29T19:16:52.821Z,12.70
2023-03-29T19:19:41.690Z,12.70
2023-03-29T19:22:29.612Z,12.60
2023-03-29T19:25:19.698Z,12.50
2023-03-29T19:28:07.519Z,12.40
2023-03-29T19:30:56.488Z,12.90
2023-03-29T19:33:47.624Z,12.30
2023-03-29T19:36:36.396Z,12.40
2023-03-29T19:39:26.857Z,11.80
2023-03-29T19:42:15.948Z,12.30
2023-03-29T19:45:04.163Z,12.20
2023-03-29T19:47:54.956Z,12.10
2023-03-29T19:50:43.442Z,11.90
2023-03-29T19:53:31.154Z,12.00
2023-03-29T19:56:18.992Z,13.30
2023-03-29T19:59:11.234Z,11.90
2023-03-29T20:01:59.607Z,11.80
2023-03-29T20:04:47.708Z,11.90
2023-03-29T20:07:35.711Z,12.10
2023-03-29T20:10:26.201Z,11.90
2023-03-29T20:13:15.804Z,11.90
2023-03-29T20:16:11.866Z,12.60
2023-03-29T20:19:02.118Z,12.10
2023-03-29T20:21:50.819Z,14.20
2023-03-29T20:24:38.460Z,12.30
2023-03-29T20:27:26.120Z,12.50
2023-03-29T20:30:14.518Z,12.70
2023-03-29T20:33:04.904Z,12.80
2023-03-29T20:35:52.658Z,10.80
2023-03-29T20:38:41.861Z,13.00
2023-03-29T20:41:29.990Z,15.50
2023-03-29T20:44:18.641Z,13.10
2023-03-29T20:47:08.336Z,13.20
2023-03-29T20:49:57.423Z,13.30
2023-03-29T20:52:45.759Z,13.30
2023-03-29T20:55:34.424Z,13.10
2023-03-29T20:58:22.711Z,13.30
2023-03-29T21:01:14.315Z,13.70
2023-03-29T21:04:02.880Z,13.60
2023-03-29T21:06:55.490Z,14.10
2023-03-29T21:09:45.686Z,13.70
2023-03-29T21:12:33.576Z,14.10
2023-03-29T21:15:21.289Z,13.80
2023-03-29T21:18:09.934Z,14.00
2023-03-29T21:21:01.074Z,14.00
2023-03-29T21:23:51.133Z,14.10
2023-03-29T21:26:38.787Z,14.50
2023-03-29T21:29:27.978Z,15.60
2023-03-29T21:32:16.120Z,14.10
2023-03-29T21:35:03.627Z,15.30
2023-03-29T21:37:51.252Z,14.50
2023-03-29T21:40:40.281Z,14.50
2023-03-29T21:43:28.224Z,14.60
2023-03-29T21:46:16.677Z,15.00
2023-03-29T21:49:04.816Z,14.70
2023-03-29T21:51:53.002Z,14.80
2023-03-29T21:54:41.654Z,16.60
2023-03-29T21:57:31.138Z,14.80
2023-03-29T22:00:21.380Z,15.00
2023-03-29T22:03:11.261Z,14.90
2023-03-29T22:05:59.780Z,15.00
2023-03-29T22:08:50.435Z,14.80
2023-03-29T22:11:38.756Z,14.70
2023-03-29T22:14:30.438Z,14.80
2023-03-29T22:17:18.770Z,14.70
2023-03-29T22:20:14.122Z,14.50
2023-03-29T22:23:01.571Z,14.80
2023-03-29T22:25:55.331Z,14.40
2023-03-29T22:28:44.043Z,14.40
2023-03-29T22:31:33.839Z,14.20
2023-03-29T22:34:22.140Z,14.20
2023-03-29T22:37:10.321Z,14.20
2023-03-29T22:39:58.679Z,14.10
2023-03-29T22:42:46.594Z,14.00
2023-03-29T22:45:35.368Z,14.00
2023-03-29T22:48:24.592Z,13.10
2023-03-29T22:51:12.436Z,14.00
2023-03-29T22:54:00.334Z,13.90
2023-03-29T22:56:47.603Z,11.90
2023-03-29T22:59:35.778Z,14.00
2023-03-29T23:02:24.387Z,14.00
2023-03-29T23:05:14.856Z,14.10
2023-03-29T23:08:02.534Z,14.30
2023-03-29T23:10:51.581Z,14.10
2023-03-29T23:13:42.989Z,14.00
2023-03-29T23:16:31.150Z,14.10
2023-03-29T23:19:19.469Z,15.50
2023-03-29T23:22:09.164Z,15.00
2023-03-29T23:24:56.978Z,14.30
2023-03-29T23:27:44.359Z,14.40
2023-03-29T23:30:36.037Z,14.50
2023-03-29T23:33:25.891Z,14.90
2023-03-29T23:36:15.288Z,15.90
2023-03-29T23:39:09.374Z,15.00
2023-03-29T23:41:57.634Z,13.50
2023-03-29T23:44:45.827Z,15.20
2023-03-29T23:47:33.803Z,16.10
2023-03-29T23:50:22.810Z,15.70
2023-03-29T23:53:10.735Z,15.40
2023-03-29T23:56:00.799Z,13.70
2023-03-29T23:58:49.934Z,15.20
